createdAt,value
2017-02-18T00:00:07.981Z,963.54
2017-02-18T00:01:07.518Z,963.56
2017-02-18T00:02:08.417Z,963.57
2017-02-18T00:03:09.812Z,963.56
2017-02-18T00:04:26.916Z,963.57
2017-02-18T00:05:07.452Z,963.57
2017-02-18T00:06:08.164Z,963.60
2017-02-18T00:07:07.672Z,963.56
2017-02-18T00:08:08.296Z,963.55
2017-02-18T00:09:07.860Z,963.58
2017-02-18T00:10:07.542Z,963.59
2017-02-18T00:11:08.147Z,963.58
2017-02-18T00:12:07.668Z,963.57
2017-02-18T00:13:08.280Z,963.64
2017-02-18T00:14:07.782Z,963.64
2017-02-18T00:15:07.270Z,963.63
2017-02-18T00:16:07.862Z,963.54
2017-02-18T00:17:07.575Z,963.55
2017-02-18T00:18:08.161Z,963.59
2017-02-18T00:19:07.716Z,963.55
2017-02-18T00:20:08.365Z,963.54
2017-02-18T00:21:07.963Z,963.55
2017-02-18T00:22:07.579Z,963.58
2017-02-18T00:23:08.061Z,963.58
2017-02-18T00:24:33.180Z,963.57
2017-02-18T00:25:07.696Z,963.55
2017-02-18T00:26:08.300Z,963.53
2017-02-18T00:27:07.789Z,963.58
2017-02-18T00:28:07.321Z,963.57
2017-02-18T00:29:07.868Z,963.54
2017-02-18T00:30:07.346Z,963.55
2017-02-18T00:31:07.905Z,963.62
2017-02-18T00:32:33.253Z,963.57
2017-02-18T00:33:07.913Z,963.56
2017-02-18T00:34:07.410Z,963.55
2017-02-18T00:35:07.962Z,963.54
2017-02-18T00:36:07.569Z,963.52
2017-02-18T00:37:08.179Z,963.58
2017-02-18T00:38:27.237Z,963.59
2017-02-18T00:39:07.794Z,963.60
2017-02-18T00:40:07.332Z,963.62
2017-02-18T00:41:07.912Z,963.58
2017-02-18T00:42:07.674Z,963.59
2017-02-18T00:43:08.213Z,963.60
2017-02-18T00:44:07.870Z,963.56
2017-02-18T00:45:07.479Z,963.60
2017-02-18T00:46:08.014Z,963.58
2017-02-18T00:47:07.748Z,963.58
2017-02-18T00:48:07.395Z,963.57
2017-02-18T00:49:07.903Z,963.55
2017-02-18T00:50:08.009Z,963.54
2017-02-18T00:51:07.740Z,963.56
2017-02-18T00:52:07.293Z,963.56
2017-02-18T00:53:07.915Z,963.56
2017-02-18T00:54:07.519Z,963.56
2017-02-18T00:55:08.195Z,963.55
2017-02-18T00:56:08.947Z,963.50
2017-02-18T00:57:07.422Z,963.50
2017-02-18T00:58:08.006Z,963.50
2017-02-18T00:59:07.588Z,963.50
2017-02-18T01:00:09.192Z,963.53
2017-02-18T01:01:07.747Z,963.55
2017-02-18T01:02:08.451Z,963.54
2017-02-18T01:03:08.296Z,963.52
2017-02-18T01:04:08.097Z,963.54
2017-02-18T01:05:07.771Z,963.52
2017-02-18T01:06:07.402Z,963.55
2017-02-18T01:07:07.963Z,963.52
2017-02-18T01:08:07.483Z,963.56
2017-02-18T01:09:08.060Z,963.48
2017-02-18T01:10:07.698Z,963.52
2017-02-18T01:11:08.366Z,963.52
2017-02-18T01:12:07.986Z,963.53
2017-02-18T01:13:07.601Z,963.55
2017-02-18T01:14:08.471Z,963.51
2017-02-18T01:15:08.060Z,963.48
2017-02-18T01:16:07.753Z,963.54
2017-02-18T01:17:07.430Z,963.56
2017-02-18T01:18:08.027Z,963.60
2017-02-18T01:19:07.638Z,963.59
2017-02-18T01:20:08.228Z,963.55
2017-02-18T01:21:07.789Z,963.58
2017-02-18T01:22:07.328Z,963.62
2017-02-18T01:23:07.931Z,963.57
2017-02-18T01:24:07.606Z,963.56
2017-02-18T01:26:07.589Z,963.57
2017-02-18T01:27:07.757Z,963.57
2017-02-18T01:28:08.374Z,963.59
2017-02-18T01:29:07.852Z,963.51
2017-02-18T01:30:07.346Z,963.58
2017-02-18T01:31:07.856Z,963.57
2017-02-18T01:32:07.391Z,963.56
2017-02-18T01:33:07.973Z,963.55
2017-02-18T01:34:07.576Z,963.54
2017-02-18T01:35:08.184Z,963.54
2017-02-18T01:36:08.086Z,963.58
2017-02-18T01:37:07.883Z,963.54
2017-02-18T01:38:07.455Z,963.53
2017-02-18T01:39:07.979Z,963.53
2017-02-18T01:40:07.536Z,963.57
2017-02-18T01:41:08.139Z,963.51
2017-02-18T01:42:07.650Z,963.53
2017-02-18T01:43:08.277Z,963.53
2017-02-18T01:44:07.843Z,963.54
2017-02-18T01:45:07.484Z,963.53
2017-02-18T01:46:07.623Z,963.49
2017-02-18T01:47:07.974Z,963.52
2017-02-18T01:48:07.518Z,963.48
2017-02-18T01:49:08.108Z,963.44
2017-02-18T01:50:07.781Z,963.52
2017-02-18T01:51:07.408Z,963.48
2017-02-18T01:52:07.994Z,963.49
2017-02-18T01:53:07.561Z,963.47
2017-02-18T01:54:08.131Z,963.47
2017-02-18T01:55:07.650Z,963.46
2017-02-18T01:56:08.232Z,963.48
2017-02-18T01:57:08.141Z,963.47
2017-02-18T01:58:07.693Z,963.48
2017-02-18T01:59:08.597Z,963.49
2017-02-18T02:00:08.218Z,963.49
2017-02-18T02:01:07.841Z,963.51
2017-02-18T02:02:07.382Z,963.47
2017-02-18T02:03:08.011Z,963.47
2017-02-18T02:04:07.628Z,963.44
2017-02-18T02:05:08.238Z,963.43
2017-02-18T02:06:07.917Z,963.46
2017-02-18T02:07:07.941Z,963.43
2017-02-18T02:08:07.695Z,963.39
2017-02-18T02:09:08.521Z,963.42
2017-02-18T02:10:08.086Z,963.39
2017-02-18T02:11:07.692Z,963.40
2017-02-18T02:12:08.268Z,963.47
2017-02-18T02:13:07.801Z,963.38
2017-02-18T02:14:07.333Z,963.39
2017-02-18T02:15:07.946Z,963.35
2017-02-18T02:16:07.525Z,963.38
2017-02-18T02:17:08.211Z,963.38
2017-02-18T02:18:07.858Z,963.37
2017-02-18T02:19:07.614Z,963.35
2017-02-18T02:20:08.291Z,963.43
2017-02-18T02:21:07.954Z,963.29
2017-02-18T02:22:07.497Z,963.35
2017-02-18T02:23:08.068Z,963.31
2017-02-18T02:24:07.660Z,963.30
2017-02-18T02:25:08.297Z,963.33
2017-02-18T02:26:07.864Z,963.33
2017-02-18T02:27:07.321Z,963.35
2017-02-18T02:28:07.914Z,963.38
2017-02-18T02:29:07.813Z,963.34
2017-02-18T02:30:07.395Z,963.30
2017-02-18T02:31:08.210Z,963.30
2017-02-18T02:32:07.982Z,963.29
2017-02-18T02:33:07.487Z,963.23
2017-02-18T02:34:08.017Z,963.22
2017-02-18T02:35:07.614Z,963.23
2017-02-18T02:36:08.221Z,963.19
2017-02-18T02:37:07.850Z,963.16
2017-02-18T02:38:07.338Z,963.20
2017-02-18T02:39:07.939Z,963.24
2017-02-18T02:40:07.785Z,963.23
2017-02-18T02:41:07.368Z,963.24
2017-02-18T02:42:07.981Z,963.23
2017-02-18T02:43:07.467Z,963.33
2017-02-18T02:44:08.100Z,963.27
2017-02-18T02:45:07.750Z,963.27
2017-02-18T02:46:07.809Z,963.29
2017-02-18T02:47:07.341Z,963.26
2017-02-18T02:48:07.912Z,963.26
2017-02-18T02:49:07.740Z,963.28
2017-02-18T02:50:08.319Z,963.29
2017-02-18T02:51:07.888Z,963.27
2017-02-18T02:52:07.433Z,963.27
2017-02-18T02:53:08.122Z,963.25
2017-02-18T02:54:07.592Z,963.31
2017-02-18T02:55:08.156Z,963.24
2017-02-18T02:56:07.759Z,963.22
2017-02-18T02:57:07.372Z,963.25
2017-02-18T02:58:07.973Z,963.21
2017-02-18T02:59:07.488Z,963.22
2017-02-18T03:00:07.983Z,963.24
2017-02-18T03:01:07.561Z,963.25
2017-02-18T03:02:08.265Z,963.23
2017-02-18T03:03:07.846Z,963.26
2017-02-18T03:04:07.402Z,963.22
2017-02-18T03:05:07.922Z,963.25
2017-02-18T03:06:07.571Z,963.25
2017-02-18T03:07:08.094Z,963.25
2017-02-18T03:08:07.610Z,963.24
2017-02-18T03:09:08.136Z,963.23
2017-02-18T03:10:07.603Z,963.22
2017-02-18T03:11:08.250Z,963.25
2017-02-18T03:12:08.269Z,963.27
2017-02-18T03:13:07.748Z,963.29
2017-02-18T03:14:08.328Z,963.26
2017-02-18T03:15:07.877Z,963.28
2017-02-18T03:16:07.474Z,963.26
2017-02-18T03:17:08.221Z,963.30
2017-02-18T03:18:07.896Z,963.30
2017-02-18T03:19:07.416Z,963.32
2017-02-18T03:20:07.926Z,963.27
2017-02-18T03:21:07.915Z,963.27
2017-02-18T03:22:07.427Z,963.27
2017-02-18T03:23:07.891Z,963.31
2017-02-18T03:24:07.643Z,963.29
2017-02-18T03:25:08.489Z,963.27
2017-02-18T03:26:07.994Z,963.26
2017-02-18T03:27:07.685Z,963.26
2017-02-18T03:28:07.391Z,963.27
2017-02-18T03:29:07.981Z,963.26
2017-02-18T03:30:08.588Z,963.35
2017-02-18T03:31:08.147Z,963.26
2017-02-18T03:32:07.972Z,963.28
2017-02-18T03:33:07.747Z,963.27
2017-02-18T03:34:08.348Z,963.27
2017-02-18T03:35:08.006Z,963.28
2017-02-18T03:36:07.592Z,963.29
2017-02-18T03:37:08.167Z,963.28
2017-02-18T03:38:07.689Z,963.28
2017-02-18T03:39:08.307Z,963.30
2017-02-18T03:40:08.109Z,963.27
2017-02-18T03:41:07.717Z,963.29
2017-02-18T03:42:08.332Z,963.25
2017-02-18T03:43:07.889Z,963.24
2017-02-18T03:44:07.569Z,963.28
2017-02-18T03:45:08.243Z,963.27
2017-02-18T03:46:07.408Z,963.28
2017-02-18T03:47:07.998Z,963.28
2017-02-18T03:48:07.559Z,963.29
2017-02-18T03:49:08.141Z,963.32
2017-02-18T03:50:07.760Z,963.25
2017-02-18T03:51:07.344Z,963.30
2017-02-18T03:52:07.980Z,963.31
2017-02-18T03:53:07.515Z,963.35
2017-02-18T03:54:07.491Z,963.30
2017-02-18T03:55:08.048Z,963.28
2017-02-18T03:56:07.886Z,963.29
2017-02-18T03:57:07.660Z,963.27
2017-02-18T03:58:08.315Z,963.26
2017-02-18T03:59:07.901Z,963.23
2017-02-18T04:00:07.420Z,963.22
2017-02-18T04:01:08.041Z,963.24
2017-02-18T04:02:07.517Z,963.27
2017-02-18T04:03:07.693Z,963.25
2017-02-18T04:04:08.270Z,963.23
2017-02-18T04:05:07.827Z,963.24
2017-02-18T04:06:07.483Z,963.23
2017-02-18T04:07:08.053Z,963.24
2017-02-18T04:08:07.619Z,963.26
2017-02-18T04:09:08.232Z,963.18
2017-02-18T04:10:07.700Z,963.23
2017-02-18T04:11:08.223Z,963.27
2017-02-18T04:12:07.713Z,963.24
2017-02-18T04:13:08.347Z,963.21
2017-02-18T04:14:07.994Z,963.21
2017-02-18T04:15:07.663Z,963.22
2017-02-18T04:16:08.476Z,963.25
2017-02-18T04:17:08.442Z,963.23
2017-02-18T04:18:08.111Z,963.21
2017-02-18T04:19:07.663Z,963.23
2017-02-18T04:20:08.239Z,963.24
2017-02-18T04:21:07.827Z,963.28
2017-02-18T04:22:07.385Z,963.28
2017-02-18T04:23:07.901Z,963.29
2017-02-18T04:24:07.542Z,963.33
2017-02-18T04:25:08.132Z,963.30
2017-02-18T04:26:07.733Z,963.32
2017-02-18T04:27:08.291Z,963.27
2017-02-18T04:28:07.823Z,963.35
2017-02-18T04:29:07.438Z,963.32
2017-02-18T04:30:08.026Z,963.30
2017-02-18T04:31:07.481Z,963.34
2017-02-18T04:32:08.491Z,963.33
2017-02-18T04:33:08.062Z,963.31
2017-02-18T04:34:07.650Z,963.33
2017-02-18T04:35:08.281Z,963.34
2017-02-18T04:36:07.941Z,963.35
2017-02-18T04:37:07.750Z,963.30
2017-02-18T04:38:07.552Z,963.32
2017-02-18T04:39:08.241Z,963.32
2017-02-18T04:40:08.178Z,963.32
2017-02-18T04:41:08.161Z,963.31
2017-02-18T04:42:07.699Z,963.35
2017-02-18T04:43:08.314Z,963.39
2017-02-18T04:44:07.872Z,963.40
2017-02-18T04:45:07.445Z,963.39
2017-02-18T04:46:07.552Z,963.41
2017-02-18T04:47:08.148Z,963.41
2017-02-18T04:48:07.714Z,963.40
2017-02-18T04:49:08.329Z,963.43
2017-02-18T04:50:07.954Z,963.43
2017-02-18T04:51:07.504Z,963.41
2017-02-18T04:52:08.034Z,963.46
2017-02-18T04:53:07.658Z,963.43
2017-02-18T04:54:08.321Z,963.41
2017-02-18T04:55:07.858Z,963.43
2017-02-18T04:56:07.630Z,963.39
2017-02-18T04:57:08.278Z,963.43
2017-02-18T04:58:07.769Z,963.39
2017-02-18T04:59:07.250Z,963.39
2017-02-18T05:00:07.722Z,963.44
2017-02-18T05:01:08.319Z,963.44
2017-02-18T05:02:08.028Z,963.39
2017-02-18T05:03:07.645Z,963.40
2017-02-18T05:04:08.299Z,963.38
2017-02-18T05:05:07.988Z,963.37
2017-02-18T05:06:07.639Z,963.36
2017-02-18T05:07:08.222Z,963.36
2017-02-18T05:08:07.777Z,963.38
2017-02-18T05:09:07.278Z,963.39
2017-02-18T05:10:07.925Z,963.35
2017-02-18T05:11:07.776Z,963.39
2017-02-18T05:12:07.550Z,963.37
2017-02-18T05:13:08.115Z,963.37
2017-02-18T05:14:07.641Z,963.35
2017-02-18T05:15:08.330Z,963.36
2017-02-18T05:16:07.907Z,963.40
2017-02-18T05:17:07.528Z,963.39
2017-02-18T05:18:08.115Z,963.39
2017-02-18T05:19:07.742Z,963.38
2017-02-18T05:20:08.332Z,963.38
2017-02-18T05:21:07.970Z,963.41
2017-02-18T05:22:07.466Z,963.39
2017-02-18T05:23:08.102Z,963.40
2017-02-18T05:24:07.731Z,963.45
2017-02-18T05:25:11.052Z,963.48
2017-02-18T05:26:07.713Z,963.47
2017-02-18T05:27:08.257Z,963.44
2017-02-18T05:28:07.861Z,963.47
2017-02-18T05:29:07.413Z,963.45
2017-02-18T05:30:07.982Z,963.48
2017-02-18T05:31:07.651Z,963.46
2017-02-18T05:32:08.252Z,963.47
2017-02-18T05:33:07.825Z,963.51
2017-02-18T05:34:07.298Z,963.50
2017-02-18T05:35:07.877Z,963.49
2017-02-18T05:36:07.444Z,963.51
2017-02-18T05:37:08.060Z,963.50
2017-02-18T05:38:07.672Z,963.50
2017-02-18T05:39:08.267Z,963.46
2017-02-18T05:40:07.860Z,963.49
2017-02-18T05:41:07.817Z,963.48
2017-02-18T05:42:07.576Z,963.52
2017-02-18T05:43:08.302Z,963.52
2017-02-18T05:44:07.834Z,963.53
2017-02-18T05:45:07.409Z,963.55
2017-02-18T05:46:08.000Z,963.53
2017-02-18T05:47:07.509Z,963.50
2017-02-18T05:48:08.152Z,963.50
2017-02-18T05:49:07.669Z,963.55
2017-02-18T05:50:08.247Z,963.53
2017-02-18T05:51:07.802Z,963.58
2017-02-18T05:52:07.330Z,963.57
2017-02-18T05:53:08.369Z,963.59
2017-02-18T05:54:07.981Z,963.56
2017-02-18T05:55:07.601Z,963.60
2017-02-18T05:56:08.193Z,963.59
2017-02-18T05:57:07.727Z,963.62
2017-02-18T05:58:08.335Z,963.63
2017-02-18T05:59:07.979Z,963.62
2017-02-18T06:00:07.932Z,963.61
2017-02-18T06:01:07.449Z,963.68
2017-02-18T06:02:08.052Z,963.67
2017-02-18T06:03:07.578Z,963.65
2017-02-18T06:04:08.178Z,963.70
2017-02-18T06:05:07.726Z,963.70
2017-02-18T06:06:08.367Z,963.71
2017-02-18T06:07:07.877Z,963.69
2017-02-18T06:08:07.378Z,963.70
2017-02-18T06:09:07.885Z,963.74
2017-02-18T06:10:07.475Z,963.72
2017-02-18T06:11:07.988Z,963.77
2017-02-18T06:12:07.760Z,963.75
2017-02-18T06:13:07.287Z,963.79
2017-02-18T06:14:07.945Z,963.81
2017-02-18T06:15:08.408Z,963.78
2017-02-18T06:16:08.004Z,963.79
2017-02-18T06:17:07.798Z,963.80
2017-02-18T06:18:07.318Z,963.84
2017-02-18T06:19:07.859Z,963.82
2017-02-18T06:20:07.664Z,963.80
2017-02-18T06:21:08.273Z,963.83
2017-02-18T06:22:07.840Z,963.85
2017-02-18T06:23:07.394Z,963.83
2017-02-18T06:24:08.200Z,963.83
2017-02-18T06:25:07.770Z,963.87
2017-02-18T06:26:07.381Z,963.97
2017-02-18T06:27:08.012Z,963.89
2017-02-18T06:28:07.610Z,963.85
2017-02-18T06:29:08.206Z,963.87
2017-02-18T06:30:07.833Z,963.89
2017-02-18T06:31:07.471Z,963.89
2017-02-18T06:32:08.129Z,963.87
2017-02-18T06:33:07.744Z,963.89
2017-02-18T06:34:07.511Z,963.91
2017-02-18T06:35:08.148Z,963.91
2017-02-18T06:36:07.678Z,963.88
2017-02-18T06:37:08.217Z,963.88
2017-02-18T06:38:07.929Z,963.92
2017-02-18T06:39:07.460Z,963.94
2017-02-18T06:40:08.178Z,963.94
2017-02-18T06:41:07.750Z,963.94
2017-02-18T06:42:07.638Z,963.94
2017-02-18T06:43:08.166Z,963.95
2017-02-18T06:44:07.736Z,963.98
2017-02-18T06:45:08.301Z,963.97
2017-02-18T06:46:07.774Z,963.95
2017-02-18T06:47:07.364Z,964.01
2017-02-18T06:48:08.186Z,963.97
2017-02-18T06:49:07.879Z,963.99
2017-02-18T06:50:08.058Z,964.01
2017-02-18T06:51:07.552Z,964.03
2017-02-18T06:52:08.055Z,963.99
2017-02-18T06:53:07.722Z,963.97
2017-02-18T06:54:31.929Z,963.96
2017-02-18T06:55:07.717Z,963.97
2017-02-18T06:56:08.334Z,963.98
2017-02-18T06:57:08.007Z,964.00
2017-02-18T06:58:07.578Z,963.98
2017-02-18T06:59:08.166Z,963.97
2017-02-18T07:00:08.020Z,963.96
2017-02-18T07:01:07.587Z,963.94
2017-02-18T07:02:08.144Z,963.97
2017-02-18T07:03:17.651Z,964.00
2017-02-18T07:04:08.242Z,963.99
2017-02-18T07:05:07.777Z,963.97
2017-02-18T07:06:07.200Z,963.98
2017-02-18T07:07:09.247Z,963.97
2017-02-18T07:08:07.854Z,963.94
2017-02-18T07:09:07.829Z,963.96
2017-02-18T07:10:07.327Z,963.95
2017-02-18T07:11:07.792Z,963.93
2017-02-18T07:12:08.129Z,963.91
2017-02-18T07:13:07.630Z,963.90
2017-02-18T07:14:08.243Z,963.86
2017-02-18T07:15:07.801Z,963.84
2017-02-18T07:16:07.268Z,963.87
2017-02-18T07:17:08.299Z,963.85
2017-02-18T07:18:08.145Z,963.87
2017-02-18T07:19:07.709Z,963.85
2017-02-18T07:20:08.344Z,963.89
2017-02-18T07:21:07.888Z,963.89
2017-02-18T07:22:07.518Z,963.92
2017-02-18T07:23:08.120Z,963.90
2017-02-18T07:24:07.717Z,963.93
2017-02-18T07:25:08.252Z,963.96
2017-02-18T07:26:07.849Z,963.97
2017-02-18T07:27:07.379Z,963.98
2017-02-18T07:28:08.269Z,964.02
2017-02-18T07:29:07.919Z,964.03
2017-02-18T07:30:07.938Z,964.02
2017-02-18T07:31:07.506Z,964.07
2017-02-18T07:32:08.166Z,964.08
2017-02-18T07:33:18.407Z,964.09
2017-02-18T07:34:08.015Z,964.09
2017-02-18T07:35:07.530Z,964.11
2017-02-18T07:36:08.085Z,964.08
2017-02-18T07:37:07.790Z,964.11
2017-02-18T07:38:07.293Z,964.09
2017-02-18T07:39:08.157Z,964.13
2017-02-18T07:40:08.008Z,964.17
2017-02-18T07:41:07.701Z,964.19
2017-02-18T07:42:09.410Z,964.17
2017-02-18T07:43:07.869Z,964.18
2017-02-18T07:44:07.484Z,964.21
2017-02-18T07:45:08.010Z,964.21
2017-02-18T07:46:08.484Z,964.24
2017-02-18T07:47:08.148Z,964.24
2017-02-18T07:48:07.632Z,964.27
2017-02-18T07:49:08.358Z,964.25
2017-02-18T07:50:07.890Z,964.23
2017-02-18T07:51:07.748Z,964.26
2017-02-18T07:52:07.530Z,964.26
2017-02-18T07:53:08.174Z,964.26
2017-02-18T07:54:07.743Z,964.26
2017-02-18T07:55:08.312Z,964.29
2017-02-18T07:56:07.901Z,964.29
2017-02-18T07:57:07.494Z,964.26
2017-02-18T07:58:08.192Z,964.27
2017-02-18T07:59:07.712Z,964.29
2017-02-18T08:00:08.262Z,964.27
2017-02-18T08:01:08.237Z,964.29
2017-02-18T08:02:07.920Z,964.31
2017-02-18T08:03:07.493Z,964.29
2017-02-18T08:04:08.091Z,964.32
2017-02-18T08:05:07.787Z,964.27
2017-02-18T08:06:07.524Z,964.30
2017-02-18T08:07:08.157Z,964.28
2017-02-18T08:08:07.776Z,964.30
2017-02-18T08:09:07.263Z,964.28
2017-02-18T08:10:07.757Z,964.28
2017-02-18T08:11:07.304Z,964.28
2017-02-18T08:12:07.792Z,964.31
2017-02-18T08:13:07.433Z,964.29
2017-02-18T08:14:07.932Z,964.33
2017-02-18T08:15:07.501Z,964.28
2017-02-18T08:16:08.275Z,964.29
2017-02-18T08:17:07.943Z,964.33
2017-02-18T08:18:07.441Z,964.31
2017-02-18T08:19:07.954Z,964.32
2017-02-18T08:20:07.463Z,964.30
2017-02-18T08:21:08.004Z,964.30
2017-02-18T08:22:07.760Z,964.31
2017-02-18T08:23:07.440Z,964.27
2017-02-18T08:24:08.885Z,964.30
2017-02-18T08:25:07.439Z,964.33
2017-02-18T08:26:08.051Z,964.30
2017-02-18T08:27:07.612Z,964.30
2017-02-18T08:28:08.338Z,964.29
2017-02-18T08:29:07.920Z,964.30
2017-02-18T08:30:07.605Z,964.28
2017-02-18T08:31:08.134Z,964.25
2017-02-18T08:32:07.639Z,964.26
2017-02-18T08:33:07.611Z,964.30
2017-02-18T08:34:08.174Z,964.23
2017-02-18T08:35:07.780Z,964.29
2017-02-18T08:36:07.384Z,964.31
2017-02-18T08:37:07.973Z,964.27
2017-02-18T08:38:07.627Z,964.24
2017-02-18T08:39:08.247Z,964.28
2017-02-18T08:40:07.831Z,964.29
2017-02-18T08:41:07.344Z,964.25
2017-02-18T08:42:07.916Z,964.24
2017-02-18T08:43:07.675Z,964.28
2017-02-18T08:44:08.364Z,964.28
2017-02-18T08:45:07.922Z,964.28
2017-02-18T08:46:07.603Z,964.30
2017-02-18T08:47:08.209Z,964.30
2017-02-18T08:48:07.718Z,964.24
2017-02-18T08:49:08.330Z,964.29
2017-02-18T08:50:07.834Z,964.32
2017-02-18T08:51:07.317Z,964.27
2017-02-18T08:52:07.884Z,964.28
2017-02-18T08:53:07.411Z,964.25
2017-02-18T08:54:07.954Z,964.28
2017-02-18T08:55:07.456Z,964.29
2017-02-18T08:56:07.991Z,964.29
2017-02-18T08:57:07.703Z,964.26
2017-02-18T08:58:08.217Z,964.23
2017-02-18T08:59:08.023Z,964.25
2017-02-18T09:00:07.694Z,964.27
2017-02-18T09:01:08.285Z,964.22
2017-02-18T09:02:07.940Z,964.25
2017-02-18T09:03:07.508Z,964.24
2017-02-18T09:04:08.043Z,964.24
2017-02-18T09:05:07.749Z,964.24
2017-02-18T09:06:07.530Z,964.24
2017-02-18T09:07:08.075Z,964.30
2017-02-18T09:08:07.681Z,964.29
2017-02-18T09:09:08.293Z,964.25
2017-02-18T09:10:07.908Z,964.27
2017-02-18T09:11:07.417Z,964.25
2017-02-18T09:12:07.866Z,964.22
2017-02-18T09:13:07.383Z,964.22
2017-02-18T09:14:07.923Z,964.27
2017-02-18T09:15:07.502Z,964.23
2017-02-18T09:16:08.019Z,964.28
2017-02-18T09:17:07.690Z,964.25
2017-02-18T09:18:08.288Z,964.23
2017-02-18T09:19:07.873Z,964.29
2017-02-18T09:20:07.467Z,964.27
2017-02-18T09:21:08.034Z,964.27
2017-02-18T09:22:07.598Z,964.26
2017-02-18T09:23:08.185Z,964.28
2017-02-18T09:24:07.776Z,964.27
2017-02-18T09:25:07.880Z,964.29
2017-02-18T09:26:07.537Z,964.30
2017-02-18T09:27:08.025Z,964.28
2017-02-18T09:28:07.653Z,964.29
2017-02-18T09:29:08.588Z,964.28
2017-02-18T09:30:08.168Z,964.27
2017-02-18T09:31:07.682Z,964.26
2017-02-18T09:32:08.291Z,964.30
2017-02-18T09:33:07.818Z,964.29
2017-02-18T09:34:07.375Z,964.27
2017-02-18T09:35:07.955Z,964.27
2017-02-18T09:36:07.417Z,964.30
2017-02-18T09:37:08.067Z,964.29
2017-02-18T09:38:07.764Z,964.25
2017-02-18T09:39:07.530Z,964.27
2017-02-18T09:40:08.133Z,964.26
2017-02-18T09:41:07.664Z,964.28
2017-02-18T09:42:09.168Z,964.29
2017-02-18T09:43:07.764Z,964.29
2017-02-18T09:44:07.290Z,964.32
2017-02-18T09:45:07.846Z,964.31
2017-02-18T09:46:07.372Z,964.31
2017-02-18T09:47:07.954Z,964.27
2017-02-18T09:48:07.506Z,964.33
2017-02-18T09:49:08.026Z,964.28
2017-02-18T09:50:07.826Z,964.34
2017-02-18T09:51:07.370Z,964.32
2017-02-18T09:52:08.212Z,964.35
2017-02-18T09:53:07.877Z,964.35
2017-02-18T09:54:07.392Z,964.34
2017-02-18T09:55:07.990Z,964.31
2017-02-18T09:56:07.485Z,964.26
2017-02-18T09:57:08.240Z,964.32
2017-02-18T09:58:07.836Z,964.30
2017-02-18T09:59:07.526Z,964.33
2017-02-18T10:00:08.463Z,964.32
2017-02-18T10:01:08.048Z,964.33
2017-02-18T10:02:07.620Z,964.33
2017-02-18T10:03:08.272Z,964.33
2017-02-18T10:04:07.760Z,964.33
2017-02-18T10:05:07.415Z,964.35
2017-02-18T10:06:07.968Z,964.31
2017-02-18T10:07:07.574Z,964.31
2017-02-18T10:08:08.138Z,964.30
2017-02-18T10:09:07.933Z,964.30
2017-02-18T10:10:07.448Z,964.32
2017-02-18T10:11:08.004Z,964.33
2017-02-18T10:12:07.461Z,964.33
2017-02-18T10:13:08.007Z,964.30
2017-02-18T10:14:07.615Z,964.30
2017-02-18T10:15:08.100Z,964.36
2017-02-18T10:16:08.024Z,964.29
2017-02-18T10:17:07.731Z,964.31
2017-02-18T10:18:08.215Z,964.31
2017-02-18T10:19:08.197Z,964.34
2017-02-18T10:20:07.963Z,964.31
2017-02-18T10:21:07.546Z,964.34
2017-02-18T10:22:08.180Z,964.36
2017-02-18T10:23:07.676Z,964.38
2017-02-18T10:24:08.543Z,964.37
2017-02-18T10:25:08.095Z,964.36
2017-02-18T10:26:07.708Z,964.39
2017-02-18T10:27:08.245Z,964.40
2017-02-18T10:28:07.760Z,964.41
2017-02-18T10:29:07.499Z,964.42
2017-02-18T10:30:08.084Z,964.41
2017-02-18T10:31:07.751Z,964.41
2017-02-18T10:32:07.617Z,964.41
2017-02-18T10:33:08.134Z,964.37
2017-02-18T10:34:07.728Z,964.39
2017-02-18T10:35:07.366Z,964.37
2017-02-18T10:36:08.253Z,964.36
2017-02-18T10:37:07.814Z,964.29
2017-02-18T10:38:07.305Z,964.35
2017-02-18T10:39:07.874Z,964.34
2017-02-18T10:40:07.433Z,964.38
2017-02-18T10:41:08.044Z,964.37
2017-02-18T10:42:07.557Z,964.39
2017-02-18T10:43:08.088Z,964.35
2017-02-18T10:44:07.673Z,964.38
2017-02-18T10:45:08.280Z,964.38
2017-02-18T10:46:07.888Z,964.34
2017-02-18T10:47:07.428Z,964.38
2017-02-18T10:48:08.112Z,964.34
2017-02-18T10:49:07.613Z,964.32
2017-02-18T10:50:08.227Z,964.30
2017-02-18T10:51:07.873Z,964.28
2017-02-18T10:52:07.405Z,964.27
2017-02-18T10:53:08.900Z,964.33
2017-02-18T10:54:07.417Z,964.29
2017-02-18T10:55:08.129Z,964.24
2017-02-18T10:56:07.734Z,964.28
2017-02-18T10:57:08.449Z,964.28
2017-02-18T10:58:08.012Z,964.28
2017-02-18T10:59:07.586Z,964.23
2017-02-18T11:00:08.104Z,964.19
2017-02-18T11:01:07.629Z,964.21
2017-02-18T11:02:08.347Z,964.24
2017-02-18T11:03:07.966Z,964.23
2017-02-18T11:04:07.449Z,964.19
2017-02-18T11:05:07.887Z,964.22
2017-02-18T11:06:07.614Z,964.18
2017-02-18T11:07:08.241Z,964.10
2017-02-18T11:08:07.794Z,964.15
2017-02-18T11:09:07.319Z,964.16
2017-02-18T11:10:08.029Z,964.14
2017-02-18T11:11:07.595Z,964.17
2017-02-18T11:12:08.206Z,964.09
2017-02-18T11:13:07.773Z,964.13
2017-02-18T11:14:07.302Z,964.09
2017-02-18T11:15:07.863Z,964.04
2017-02-18T11:16:07.374Z,964.07
2017-02-18T11:17:08.083Z,964.08
2017-02-18T11:18:07.559Z,964.09
2017-02-18T11:19:08.029Z,964.08
2017-02-18T11:20:07.514Z,964.04
2017-02-18T11:21:08.101Z,964.02
2017-02-18T11:22:07.699Z,964.02
2017-02-18T11:23:08.372Z,963.99
2017-02-18T11:24:07.990Z,963.99
2017-02-18T11:25:07.588Z,963.94
2017-02-18T11:26:08.218Z,964.02
2017-02-18T11:27:07.802Z,964.01
2017-02-18T11:28:07.387Z,963.99
2017-02-18T11:29:07.984Z,964.00
2017-02-18T11:30:07.658Z,963.94
2017-02-18T11:31:08.219Z,963.95
2017-02-18T11:32:07.932Z,963.87
2017-02-18T11:33:07.505Z,963.87
2017-02-18T11:34:08.023Z,963.89
2017-02-18T11:35:07.582Z,963.89
2017-02-18T11:36:08.225Z,963.88
2017-02-18T11:37:07.832Z,963.86
2017-02-18T11:38:07.347Z,963.88
2017-02-18T11:39:07.887Z,963.89
2017-02-18T11:40:07.504Z,963.84
2017-02-18T11:41:08.193Z,963.80
2017-02-18T11:42:07.843Z,963.81
2017-02-18T11:43:07.404Z,963.81
2017-02-18T11:44:08.013Z,963.79
2017-02-18T11:45:07.555Z,963.77
2017-02-18T11:46:08.164Z,963.73
2017-02-18T11:47:07.676Z,963.75
2017-02-18T11:48:08.253Z,963.71
2017-02-18T11:49:07.937Z,963.68
2017-02-18T11:50:07.746Z,963.70
2017-02-18T11:51:07.323Z,963.68
2017-02-18T11:52:07.952Z,963.71
2017-02-18T11:53:07.449Z,963.67
2017-02-18T11:54:09.061Z,963.67
2017-02-18T11:55:07.663Z,963.68
2017-02-18T11:56:08.284Z,963.67
2017-02-18T11:57:07.955Z,963.63
2017-02-18T11:58:07.476Z,963.61
2017-02-18T11:59:07.995Z,963.62
2017-02-18T12:00:07.590Z,963.61
2017-02-18T12:01:08.176Z,963.58
2017-02-18T12:02:07.707Z,963.55
2017-02-18T12:03:08.222Z,963.56
2017-02-18T12:04:07.781Z,963.57
2017-02-18T12:05:07.462Z,963.57
2017-02-18T12:06:08.183Z,963.55
2017-02-18T12:07:07.738Z,963.62
2017-02-18T12:08:08.307Z,963.61
2017-02-18T12:09:07.892Z,963.59
2017-02-18T12:10:07.630Z,963.56
2017-02-18T12:11:08.173Z,963.52
2017-02-18T12:12:08.293Z,963.52
2017-02-18T12:13:07.863Z,963.48
2017-02-18T12:14:07.784Z,963.52
2017-02-18T12:15:07.310Z,963.47
2017-02-18T12:16:07.827Z,963.48
2017-02-18T12:17:07.544Z,963.50
2017-02-18T12:18:08.019Z,963.48
2017-02-18T12:19:07.574Z,963.46
2017-02-18T12:20:08.436Z,963.42
2017-02-18T12:21:07.961Z,963.46
2017-02-18T12:22:07.511Z,963.42
2017-02-18T12:23:08.091Z,963.41
2017-02-18T12:24:07.598Z,963.39
2017-02-18T12:25:08.125Z,963.39
2017-02-18T12:26:07.726Z,963.39
2017-02-18T12:27:08.336Z,963.35
2017-02-18T12:28:07.975Z,963.34
2017-02-18T12:29:07.495Z,963.39